createdAt,value
2019-03-30T00:00:04.850Z,98.50
2019-03-30T00:02:35.516Z,98.40
2019-03-30T00:05:02.883Z,98.40
2019-03-30T00:07:30.996Z,98.30
2019-03-30T00:09:59.413Z,98.30
2019-03-30T00:12:27.822Z,98.20
2019-03-30T00:14:55.850Z,98.10
2019-03-30T00:17:23.985Z,98.10
2019-03-30T00:19:52.282Z,98.00
2019-03-30T00:22:20.365Z,98.10
2019-03-30T00:24:48.420Z,98.20
2019-03-30T00:27:16.397Z,98.30
2019-03-30T00:29:45.122Z,98.10
2019-03-30T00:32:13.698Z,98.20
2019-03-30T00:34:42.028Z,98.60
2019-03-30T00:37:09.949Z,98.20
2019-03-30T00:39:38.039Z,98.40
2019-03-30T00:42:06.867Z,98.50
2019-03-30T00:44:34.826Z,98.70
2019-03-30T00:47:03.034Z,98.90
2019-03-30T00:49:31.276Z,99.20
2019-03-30T00:51:59.364Z,99.40
2019-03-30T00:54:27.699Z,99.40
2019-03-30T00:56:56.095Z,99.50
2019-03-30T00:59:24.176Z,99.50
2019-03-30T01:01:52.423Z,99.50
2019-03-30T01:04:20.663Z,99.40
2019-03-30T01:06:48.649Z,99.30
2019-03-30T01:09:16.895Z,99.30
2019-03-30T01:11:44.922Z,99.30
2019-03-30T01:14:13.014Z,99.40
2019-03-30T01:16:41.114Z,99.80
2019-03-30T01:19:09.231Z,99.90
2019-03-30T01:21:37.390Z,99.80
2019-03-30T01:24:05.781Z,99.50
2019-03-30T01:26:33.850Z,99.50
2019-03-30T01:29:01.840Z,99.50
2019-03-30T01:31:30.363Z,99.60
2019-03-30T01:33:58.479Z,99.60
2019-03-30T01:36:26.947Z,99.90
2019-03-30T01:38:55.119Z,99.90
2019-03-30T01:41:23.485Z,99.90
2019-03-30T01:43:51.807Z,99.90
2019-03-30T01:46:20.410Z,99.90
2019-03-30T01:48:48.462Z,99.90
2019-03-30T01:51:16.424Z,99.90
2019-03-30T01:53:45.442Z,99.90
2019-03-30T01:56:13.482Z,99.90
2019-03-30T01:58:41.488Z,99.90
2019-03-30T02:01:09.563Z,99.90
2019-03-30T02:03:37.605Z,99.90
2019-03-30T02:06:05.656Z,99.90
2019-03-30T02:08:33.761Z,99.90
2019-03-30T02:11:02.142Z,99.90
2019-03-30T02:13:30.172Z,99.90
2019-03-30T02:15:58.643Z,99.90
2019-03-30T02:18:27.212Z,99.90
2019-03-30T02:20:55.512Z,99.90
2019-03-30T02:23:24.006Z,99.90
2019-03-30T02:25:52.674Z,99.90
2019-03-30T02:28:20.850Z,99.90
2019-03-30T02:30:48.865Z,99.90
2019-03-30T02:33:16.944Z,99.90
2019-03-30T02:35:45.202Z,99.90
2019-03-30T02:38:13.418Z,99.90
2019-03-30T02:40:42.310Z,99.90
2019-03-30T02:43:10.571Z,99.90
2019-03-30T02:45:38.599Z,99.90
2019-03-30T02:48:06.666Z,99.90
2019-03-30T02:50:48.138Z,99.90
2019-03-30T02:53:04.956Z,99.90
2019-03-30T02:55:34.264Z,99.90
2019-03-30T02:58:02.663Z,99.90
2019-03-30T03:00:30.797Z,99.90
2019-03-30T03:02:59.216Z,99.90
2019-03-30T03:05:27.314Z,99.90
2019-03-30T03:07:55.358Z,99.90
2019-03-30T03:10:24.006Z,99.90
2019-03-30T03:12:52.159Z,99.90
2019-03-30T03:15:20.206Z,99.90
2019-03-30T03:17:48.191Z,99.90
2019-03-30T03:20:16.305Z,99.90
2019-03-30T03:22:44.368Z,99.90
2019-03-30T03:25:12.782Z,99.90
2019-03-30T03:27:40.886Z,99.90
2019-03-30T03:30:10.093Z,99.90
2019-03-30T03:32:38.442Z,99.90
2019-03-30T03:35:06.945Z,99.90
2019-03-30T03:37:44.628Z,99.90
2019-03-30T03:40:06.223Z,99.90
2019-03-30T03:42:35.524Z,99.90
2019-03-30T03:45:04.529Z,99.90
2019-03-30T03:47:32.866Z,99.90
2019-03-30T03:50:01.225Z,99.90
2019-03-30T03:52:29.897Z,99.90
2019-03-30T03:54:58.576Z,99.90
2019-03-30T03:57:27.701Z,99.90
2019-03-30T03:59:57.845Z,99.90
2019-03-30T04:02:29.698Z,99.90
2019-03-30T04:05:00.157Z,99.90
2019-03-30T04:07:32.555Z,99.90
2019-03-30T04:10:05.600Z,99.90
2019-03-30T04:12:35.689Z,99.90
2019-03-30T04:15:04.484Z,99.90
2019-03-30T04:17:32.815Z,99.90
2019-03-30T04:20:00.984Z,99.90
2019-03-30T04:22:29.055Z,99.90
2019-03-30T04:24:57.266Z,99.90
2019-03-30T04:27:25.292Z,99.90
2019-03-30T04:29:53.471Z,99.90
2019-03-30T04:32:21.503Z,99.90
2019-03-30T04:34:49.689Z,99.90
2019-03-30T04:37:17.774Z,99.90
2019-03-30T04:39:46.207Z,99.90
2019-03-30T04:42:14.282Z,99.90
2019-03-30T04:44:42.798Z,99.90
2019-03-30T04:47:10.932Z,99.90
2019-03-30T04:49:38.971Z,99.90
2019-03-30T04:52:07.272Z,99.90
2019-03-30T04:54:36.242Z,99.90
2019-03-30T04:57:04.463Z,99.90
2019-03-30T04:59:32.579Z,99.90
2019-03-30T05:02:00.658Z,99.90
2019-03-30T05:04:29.536Z,99.90
2019-03-30T05:06:57.594Z,99.90
2019-03-30T05:09:25.821Z,99.90
2019-03-30T05:11:54.502Z,99.90
2019-03-30T05:14:22.792Z,99.90
2019-03-30T05:16:50.742Z,99.90
2019-03-30T05:19:18.885Z,99.90
2019-03-30T05:21:46.944Z,99.90
2019-03-30T05:24:15.046Z,99.90
2019-03-30T05:26:43.243Z,99.90
2019-03-30T05:29:11.586Z,99.90
2019-03-30T05:31:39.893Z,99.90
2019-03-30T05:34:08.851Z,99.90
2019-03-30T05:36:36.975Z,99.90
2019-03-30T05:39:05.579Z,99.90
2019-03-30T05:41:33.618Z,99.90
2019-03-30T05:44:01.668Z,99.90
2019-03-30T05:46:29.715Z,99.90
2019-03-30T05:48:57.755Z,99.90
2019-03-30T05:51:25.768Z,99.90
2019-03-30T05:53:55.476Z,99.90
2019-03-30T05:56:23.528Z,99.90
2019-03-30T05:58:51.565Z,99.90
2019-03-30T06:01:19.675Z,99.90
2019-03-30T06:03:49.098Z,99.90
2019-03-30T06:06:17.459Z,99.90
2019-03-30T06:08:45.593Z,99.90
2019-03-30T06:11:13.568Z,99.90
2019-03-30T06:13:41.930Z,99.90
2019-03-30T06:16:10.026Z,99.90
2019-03-30T06:18:38.487Z,99.90
2019-03-30T06:21:07.700Z,99.90
2019-03-30T06:23:36.498Z,99.90
2019-03-30T06:26:05.147Z,99.90
2019-03-30T06:28:33.286Z,99.90
2019-03-30T06:31:01.575Z,99.90
2019-03-30T06:33:29.692Z,99.90
2019-03-30T06:35:57.760Z,99.90
2019-03-30T06:38:25.854Z,99.90
2019-03-30T06:40:53.918Z,99.90
2019-03-30T06:43:22.147Z,99.90
2019-03-30T06:45:50.307Z,99.90
2019-03-30T06:48:19.069Z,99.90
2019-03-30T06:50:47.429Z,99.90
2019-03-30T06:53:16.758Z,99.90
2019-03-30T06:55:45.021Z,99.90
2019-03-30T06:58:13.939Z,99.90
2019-03-30T07:00:43.264Z,99.90
2019-03-30T07:03:11.618Z,99.90
2019-03-30T07:05:41.542Z,99.90
2019-03-30T07:08:13.788Z,99.90
2019-03-30T07:10:43.700Z,99.90
2019-03-30T07:13:11.871Z,99.90
2019-03-30T07:15:45.649Z,99.90
2019-03-30T07:18:14.562Z,99.90
2019-03-30T07:20:42.878Z,99.90
2019-03-30T07:23:12.760Z,99.90
2019-03-30T07:25:41.654Z,99.90
2019-03-30T07:28:11.151Z,99.90
2019-03-30T07:30:39.452Z,99.90
2019-03-30T07:33:07.587Z,99.90
2019-03-30T07:35:35.589Z,99.90
2019-03-30T07:38:03.771Z,99.90
2019-03-30T07:40:33.919Z,99.90
2019-03-30T07:43:01.890Z,99.90
2019-03-30T07:45:30.246Z,99.90
2019-03-30T07:47:58.340Z,99.90
2019-03-30T07:50:26.450Z,99.90
2019-03-30T07:52:54.522Z,99.90
2019-03-30T07:55:22.974Z,99.90
2019-03-30T07:57:50.963Z,99.90
2019-03-30T08:00:19.354Z,99.90
2019-03-30T08:02:48.494Z,99.90
2019-03-30T08:05:16.821Z,99.90
2019-03-30T08:07:45.303Z,99.90
2019-03-30T08:10:13.979Z,99.90
2019-03-30T08:12:42.350Z,99.90
2019-03-30T08:15:10.499Z,99.90
2019-03-30T08:17:38.469Z,99.90
2019-03-30T08:20:07.971Z,99.80
2019-03-30T08:22:36.166Z,99.90
2019-03-30T08:25:04.534Z,99.80
2019-03-30T08:27:32.902Z,99.70
2019-03-30T08:30:00.945Z,99.40
2019-03-30T08:32:29.039Z,99.10
2019-03-30T08:34:57.462Z,99.10
2019-03-30T08:37:25.862Z,98.40
2019-03-30T08:39:54.483Z,98.50
2019-03-30T08:42:22.531Z,97.80
2019-03-30T08:44:50.956Z,98.00
2019-03-30T08:47:19.644Z,97.90
2019-03-30T08:49:48.670Z,96.90
2019-03-30T08:52:17.793Z,97.10
2019-03-30T08:54:45.899Z,96.90
2019-03-30T08:57:13.944Z,96.90
2019-03-30T08:59:42.193Z,96.60
2019-03-30T09:02:10.250Z,95.50
2019-03-30T09:04:38.850Z,95.70
2019-03-30T09:07:06.818Z,95.50
2019-03-30T09:09:34.854Z,94.80
2019-03-30T09:12:03.107Z,95.10
2019-03-30T09:14:31.223Z,95.20
2019-03-30T09:16:59.216Z,95.10
2019-03-30T09:19:27.293Z,94.00
2019-03-30T09:21:55.437Z,93.70
2019-03-30T09:24:23.413Z,93.60
2019-03-30T09:26:51.682Z,93.90
2019-03-30T09:29:19.941Z,93.40
2019-03-30T09:31:48.199Z,93.60
2019-03-30T09:34:16.146Z,92.90
2019-03-30T09:36:44.252Z,93.40
2019-03-30T09:39:12.391Z,93.00
2019-03-30T09:41:40.823Z,92.50
2019-03-30T09:44:08.943Z,92.00
2019-03-30T09:46:37.539Z,91.20
2019-03-30T09:49:05.588Z,91.00
2019-03-30T09:51:33.622Z,91.20
2019-03-30T09:54:01.594Z,90.70
2019-03-30T09:56:30.443Z,90.60
2019-03-30T09:58:58.411Z,91.20
2019-03-30T10:01:26.737Z,90.10
2019-03-30T10:03:54.954Z,88.40
2019-03-30T10:06:33.819Z,90.70
2019-03-30T10:08:52.920Z,89.90
2019-03-30T10:11:21.263Z,89.70
2019-03-30T10:13:49.661Z,85.30
2019-03-30T10:16:17.963Z,84.00
2019-03-30T10:18:45.946Z,85.00
2019-03-30T10:21:13.987Z,82.80
2019-03-30T10:23:42.072Z,80.10
2019-03-30T10:26:10.038Z,80.70
2019-03-30T10:28:38.085Z,78.90
2019-03-30T10:31:06.382Z,77.10
2019-03-30T10:33:35.065Z,71.10
2019-03-30T10:36:03.186Z,72.20
2019-03-30T10:38:31.115Z,72.50
2019-03-30T10:40:59.088Z,72.20
2019-03-30T10:43:27.415Z,67.30
2019-03-30T10:45:55.421Z,66.60
2019-03-30T10:48:23.437Z,65.40
2019-03-30T10:50:51.898Z,64.60
2019-03-30T10:53:20.234Z,61.70
2019-03-30T10:55:49.000Z,61.80
2019-03-30T10:58:17.125Z,61.80
2019-03-30T11:00:45.555Z,62.20
2019-03-30T11:03:13.575Z,63.00
2019-03-30T11:05:42.694Z,57.90
2019-03-30T11:08:10.786Z,57.50
2019-03-30T11:10:39.405Z,56.30
2019-03-30T11:13:07.475Z,57.10
2019-03-30T11:15:35.541Z,55.40
2019-03-30T11:18:03.669Z,56.00
2019-03-30T11:20:31.731Z,54.40
2019-03-30T11:22:59.682Z,53.30
2019-03-30T11:25:27.668Z,53.50
2019-03-30T11:27:56.072Z,52.80
2019-03-30T11:30:24.191Z,53.60
2019-03-30T11:32:52.551Z,53.10
2019-03-30T11:35:21.672Z,52.60
2019-03-30T11:37:50.442Z,52.40
2019-03-30T11:40:18.719Z,52.90
2019-03-30T11:42:48.220Z,52.90
2019-03-30T11:45:16.419Z,50.20
2019-03-30T11:47:44.487Z,52.20
2019-03-30T11:50:12.602Z,51.20
2019-03-30T11:52:41.424Z,49.60
2019-03-30T11:55:21.281Z,50.00
2019-03-30T11:57:40.617Z,48.60
2019-03-30T12:00:09.247Z,49.00
2019-03-30T12:02:37.708Z,47.40
2019-03-30T12:05:07.087Z,46.60
2019-03-30T12:07:35.430Z,48.30
2019-03-30T12:10:04.065Z,44.40
2019-03-30T12:12:32.138Z,45.20
2019-03-30T12:15:00.616Z,46.50
2019-03-30T12:17:29.011Z,46.20
2019-03-30T12:19:57.773Z,43.50
2019-03-30T12:22:25.866Z,46.80
2019-03-30T12:24:54.347Z,42.60
2019-03-30T12:27:22.424Z,42.30
2019-03-30T12:29:50.522Z,42.90
2019-03-30T12:32:18.603Z,40.60
2019-03-30T12:34:46.733Z,39.80
2019-03-30T12:37:14.806Z,40.30
2019-03-30T12:39:42.875Z,40.80
2019-03-30T12:42:10.876Z,40.70
2019-03-30T12:44:39.263Z,42.50
2019-03-30T12:47:10.231Z,41.40
2019-03-30T12:49:37.645Z,40.00
2019-03-30T12:52:05.648Z,41.20
2019-03-30T12:54:34.210Z,41.60
2019-03-30T12:57:02.667Z,41.20
2019-03-30T12:59:31.164Z,41.20
2019-03-30T13:02:00.386Z,40.90
2019-03-30T13:04:28.864Z,41.00
2019-03-30T13:06:57.348Z,40.30
2019-03-30T13:09:25.586Z,38.80
2019-03-30T13:11:53.601Z,40.50
2019-03-30T13:14:21.705Z,41.70
2019-03-30T13:16:49.713Z,41.00
2019-03-30T13:19:18.073Z,40.70
2019-03-30T13:21:52.664Z,40.80
2019-03-30T13:24:15.997Z,40.60
2019-03-30T13:26:44.118Z,41.40
2019-03-30T13:29:12.570Z,41.90
2019-03-30T13:31:41.001Z,41.00
2019-03-30T13:34:09.891Z,41.60
2019-03-30T13:36:39.572Z,43.00
2019-03-30T13:39:08.198Z,42.70
2019-03-30T13:41:36.561Z,43.30
2019-03-30T13:44:04.649Z,43.40
2019-03-30T13:46:32.809Z,42.70
2019-03-30T13:49:01.296Z,42.60
2019-03-30T13:51:29.767Z,42.40
2019-03-30T13:53:57.984Z,42.60
2019-03-30T13:56:26.145Z,39.90
2019-03-30T13:58:54.859Z,39.60
2019-03-30T14:01:22.971Z,41.10
2019-03-30T14:03:51.351Z,41.60
2019-03-30T14:06:19.857Z,41.20
2019-03-30T14:08:47.905Z,40.90
2019-03-30T14:11:16.294Z,41.30
2019-03-30T14:13:44.579Z,40.50
2019-03-30T14:16:12.591Z,39.20
2019-03-30T14:18:40.594Z,39.50
2019-03-30T14:21:08.739Z,38.70
2019-03-30T14:23:36.889Z,39.60
2019-03-30T14:26:05.038Z,38.40
2019-03-30T14:28:33.524Z,38.90
2019-03-30T14:31:01.914Z,38.70
2019-03-30T14:33:30.115Z,38.80
2019-03-30T14:35:58.902Z,38.40
2019-03-30T14:38:27.031Z,38.80
2019-03-30T14:40:55.415Z,39.00
2019-03-30T14:43:23.941Z,38.60
2019-03-30T14:45:52.016Z,39.00
2019-03-30T14:48:20.252Z,39.00
2019-03-30T14:50:48.568Z,37.00
2019-03-30T14:53:17.614Z,37.60
2019-03-30T14:55:45.860Z,38.10
2019-03-30T14:58:14.022Z,38.60
2019-03-30T15:00:42.385Z,38.20
2019-03-30T15:03:10.556Z,38.60
2019-03-30T15:05:38.690Z,38.40
2019-03-30T15:08:06.845Z,38.70
2019-03-30T15:10:35.446Z,38.10
2019-03-30T15:13:03.838Z,38.40
2019-03-30T15:15:31.967Z,39.00
2019-03-30T15:18:00.194Z,38.80
2019-03-30T15:20:28.273Z,39.20
2019-03-30T15:22:56.358Z,38.60
2019-03-30T15:25:24.408Z,38.10
2019-03-30T15:27:52.790Z,40.00
2019-03-30T15:30:21.653Z,38.20
2019-03-30T15:32:49.781Z,37.80
2019-03-30T15:35:17.859Z,37.50
2019-03-30T15:37:47.299Z,38.20
2019-03-30T15:40:15.691Z,39.00
2019-03-30T15:42:43.779Z,38.10
2019-03-30T15:45:12.266Z,38.70
2019-03-30T15:47:40.335Z,39.30
2019-03-30T15:50:08.988Z,39.20
2019-03-30T15:52:37.097Z,40.20
2019-03-30T15:55:05.840Z,39.90
2019-03-30T15:57:34.155Z,40.00
2019-03-30T16:00:02.642Z,40.20
2019-03-30T16:02:30.729Z,40.20
2019-03-30T16:04:58.853Z,41.20
2019-03-30T16:07:27.224Z,41.70
2019-03-30T16:09:55.547Z,41.80
2019-03-30T16:12:23.920Z,41.10
2019-03-30T16:14:51.991Z,41.70
2019-03-30T16:17:20.362Z,41.70
2019-03-30T16:19:48.334Z,40.70
2019-03-30T16:22:16.741Z,41.50
2019-03-30T16:24:45.178Z,41.50
2019-03-30T16:27:27.787Z,41.90
2019-03-30T16:29:44.183Z,42.00
2019-03-30T16:32:12.270Z,43.00
2019-03-30T16:34:40.394Z,42.50
2019-03-30T16:37:08.793Z,42.70
2019-03-30T16:39:36.878Z,42.90
2019-03-30T16:42:04.974Z,43.50
2019-03-30T16:44:32.959Z,42.90
2019-03-30T16:47:01.288Z,43.10
2019-03-30T16:49:29.413Z,43.50
2019-03-30T16:51:57.410Z,43.00
2019-03-30T16:54:25.547Z,42.70
2019-03-30T16:56:54.077Z,42.90
2019-03-30T16:59:22.111Z,44.40
2019-03-30T17:01:50.965Z,43.90
2019-03-30T17:04:19.308Z,44.80
2019-03-30T17:06:47.783Z,44.40
2019-03-30T17:09:15.874Z,44.90
2019-03-30T17:11:44.024Z,45.60
2019-03-30T17:14:12.351Z,45.90
2019-03-30T17:16:40.478Z,45.90
2019-03-30T17:19:09.086Z,46.60
2019-03-30T17:21:37.052Z,46.80
2019-03-30T17:24:05.314Z,47.60
2019-03-30T17:26:33.613Z,48.10
2019-03-30T17:29:01.990Z,49.40
2019-03-30T17:31:29.965Z,50.00
2019-03-30T17:33:58.258Z,51.10
2019-03-30T17:36:26.349Z,52.30
2019-03-30T17:38:54.439Z,52.60
2019-03-30T17:41:22.560Z,53.20
2019-03-30T17:43:51.123Z,53.60
2019-03-30T17:46:19.428Z,54.10
2019-03-30T17:48:47.831Z,55.20
2019-03-30T17:51:15.875Z,55.20
2019-03-30T17:53:43.939Z,55.50
2019-03-30T17:56:12.353Z,55.70
2019-03-30T17:58:40.421Z,56.50
2019-03-30T18:01:09.277Z,58.10
2019-03-30T18:03:37.395Z,58.00
2019-03-30T18:06:05.734Z,58.40
2019-03-30T18:08:34.174Z,58.60
2019-03-30T18:11:04.265Z,59.50
2019-03-30T18:13:32.366Z,60.00
2019-03-30T18:16:00.823Z,60.10
2019-03-30T18:18:28.866Z,60.50
2019-03-30T18:20:56.852Z,60.20
2019-03-30T18:23:25.182Z,60.70
2019-03-30T18:25:53.204Z,61.40
2019-03-30T18:28:27.419Z,62.00
2019-03-30T18:30:51.389Z,62.20
2019-03-30T18:33:20.424Z,62.50
2019-03-30T18:35:48.709Z,63.30
2019-03-30T18:38:17.319Z,63.50
2019-03-30T18:40:45.582Z,63.20
2019-03-30T18:43:13.741Z,64.10
2019-03-30T18:45:42.188Z,64.80
2019-03-30T18:48:14.287Z,64.70
2019-03-30T18:50:42.960Z,65.50
2019-03-30T18:53:11.094Z,66.40
2019-03-30T18:55:39.187Z,67.60
2019-03-30T18:58:08.215Z,69.30
2019-03-30T19:00:36.285Z,69.10
2019-03-30T19:03:04.570Z,69.30
2019-03-30T19:05:32.831Z,70.50
2019-03-30T19:08:01.086Z,70.70
2019-03-30T19:10:29.108Z,71.50
2019-03-30T19:12:57.046Z,71.90
2019-03-30T19:15:25.010Z,72.30
2019-03-30T19:17:53.765Z,72.40
2019-03-30T19:20:22.587Z,72.80
2019-03-30T19:22:52.570Z,73.00
2019-03-30T19:25:20.967Z,73.80
2019-03-30T19:27:49.027Z,73.30
2019-03-30T19:30:18.518Z,73.90
2019-03-30T19:32:46.846Z,74.30
2019-03-30T19:35:15.081Z,74.60
2019-03-30T19:37:43.193Z,74.40
2019-03-30T19:40:12.601Z,75.50
2019-03-30T19:42:40.737Z,76.10
2019-03-30T19:45:09.316Z,76.20
2019-03-30T19:47:37.560Z,76.60
2019-03-30T19:50:06.139Z,77.10
2019-03-30T19:52:40.286Z,77.50
2019-03-30T19:55:05.000Z,77.90
2019-03-30T19:57:33.066Z,78.00
2019-03-30T20:00:01.388Z,78.90
2019-03-30T20:02:29.516Z,79.00
2019-03-30T20:04:57.775Z,79.10
2019-03-30T20:07:25.839Z,79.60
2019-03-30T20:09:53.955Z,80.30
2019-03-30T20:12:22.156Z,80.90
2019-03-30T20:14:50.833Z,81.50
2019-03-30T20:17:19.267Z,82.60
2019-03-30T20:19:47.774Z,82.90
2019-03-30T20:22:15.851Z,83.10
2019-03-30T20:24:43.971Z,83.20
2019-03-30T20:27:12.045Z,83.60
2019-03-30T20:29:40.163Z,83.60
2019-03-30T20:32:08.483Z,83.80
2019-03-30T20:34:36.647Z,84.10
2019-03-30T20:37:05.115Z,84.00
2019-03-30T20:39:33.470Z,84.20
2019-03-30T20:42:01.739Z,84.90
2019-03-30T20:44:30.518Z,85.30
2019-03-30T20:46:58.928Z,86.30
2019-03-30T20:49:27.042Z,86.00
2019-03-30T20:51:57.993Z,86.10
2019-03-30T20:54:26.132Z,85.80
2019-03-30T20:56:54.335Z,86.10
2019-03-30T20:59:22.442Z,86.50
2019-03-30T21:01:50.586Z,86.60
2019-03-30T21:04:18.651Z,87.10
2019-03-30T21:06:46.866Z,88.20
2019-03-30T21:09:16.696Z,87.60
2019-03-30T21:11:45.187Z,87.70
2019-03-30T21:14:14.232Z,87.60
2019-03-30T21:16:42.669Z,87.60
2019-03-30T21:19:11.031Z,87.70
2019-03-30T21:21:39.165Z,88.20
2019-03-30T21:24:07.311Z,88.70
2019-03-30T21:26:35.471Z,89.10
2019-03-30T21:29:04.059Z,88.80
2019-03-30T21:31:32.938Z,89.20
2019-03-30T21:34:01.572Z,89.20
2019-03-30T21:36:29.693Z,89.40
2019-03-30T21:38:58.127Z,89.50
2019-03-30T21:41:26.581Z,89.70
2019-03-30T21:43:55.000Z,89.70
2019-03-30T21:46:23.159Z,90.00
2019-03-30T21:48:51.585Z,90.70
2019-03-30T21:51:20.136Z,90.60
2019-03-30T21:53:48.347Z,90.70
2019-03-30T21:56:16.603Z,90.70
2019-03-30T21:58:45.263Z,90.80
2019-03-30T22:01:13.724Z,90.80
2019-03-30T22:03:41.838Z,91.00
2019-03-30T22:06:10.236Z,91.00
2019-03-30T22:08:38.806Z,90.80
2019-03-30T22:11:07.251Z,90.80
2019-03-30T22:13:36.024Z,90.80
2019-03-30T22:16:04.542Z,90.70
2019-03-30T22:18:32.977Z,90.70
2019-03-30T22:21:01.232Z,90.80
2019-03-30T22:23:29.346Z,90.80
2019-03-30T22:25:57.612Z,91.00
2019-03-30T22:28:25.618Z,91.30
2019-03-30T22:30:53.707Z,91.30
2019-03-30T22:33:21.735Z,91.40
2019-03-30T22:35:50.294Z,91.70
2019-03-30T22:38:18.762Z,92.00
2019-03-30T22:40:46.868Z,92.10
2019-03-30T22:43:14.982Z,92.20
2019-03-30T22:45:43.445Z,92.10
2019-03-30T22:48:11.790Z,91.90
2019-03-30T22:50:39.817Z,91.90
2019-03-30T22:53:07.796Z,91.90
2019-03-30T22:55:36.178Z,91.90
2019-03-30T22:58:04.338Z,91.90
2019-03-30T23:00:50.816Z,91.90
2019-03-30T23:03:19.203Z,92.00
2019-03-30T23:05:47.302Z,92.00
2019-03-30T23:08:15.664Z,92.00
2019-03-30T23:10:43.746Z,92.00
2019-03-30T23:13:12.139Z,91.90
2019-03-30T23:15:40.738Z,92.10
2019-03-30T23:18:08.711Z,92.20
2019-03-30T23:20:36.780Z,92.20
2019-03-30T23:23:04.883Z,92.50
2019-03-30T23:25:34.431Z,92.50
2019-03-30T23:28:02.667Z,92.40
2019-03-30T23:30:30.635Z,92.50
2019-03-30T23:32:59.604Z,92.60
2019-03-30T23:35:27.803Z,92.50
2019-03-30T23:37:57.542Z,92.70
2019-03-30T23:40:25.996Z,92.70
2019-03-30T23:42:54.608Z,92.80
2019-03-30T23:45:23.166Z,92.90
2019-03-30T23:47:51.320Z,92.90
2019-03-30T23:50:19.691Z,92.90
2019-03-30T23:52:47.752Z,93.00
2019-03-30T23:55:15.957Z,93.00
2019-03-30T23:57:44.890Z,93.30
